This is the latest recevied weather packets stored in our database for station/object KD5UIG. If no packets are shown the sender has not sent any weather packets the latest 10 day(s).
| Time | Temp. | Humidity | Pressure | Rain* | Wind** | Luminosity | Snow |
|---|---|---|---|---|---|---|---|
| 1777827057 | 27.78° C | 43% | 1020.7 hPa | 0 mm | - | 823 W/m² | - |
| 1777826454 | 27.22° C | 45% | 1020.8 hPa | 0 mm | - | 809 W/m² | - |
| 1777825257 | 27.22° C | 45% | 1020.8 hPa | 0 mm | - | 768 W/m² | - |
| 1777824960 | 27.22° C | 47% | 1020.8 hPa | 0 mm | - | 761 W/m² | - |
| 1777823161 | 26.11° C | 48% | 1020.9 hPa | 0 mm | - | 696 W/m² | - |
| 1777820155 | 23.33° C | 55% | 1021 hPa | 0 mm | - | 568 W/m² | - |
| 1777819258 | 22.78° C | 58% | 1021 hPa | 0 mm | - | 519 W/m² | - |
| 1777817157 | 19.44° C | 67% | 1020.9 hPa | 0 mm | - | 410 W/m² | - |
| 1777814755 | 15.56° C | 79% | 1020.6 hPa | 0 mm | - | 279 W/m² | - |
| 1777813258 | 13.33° C | 83% | 1020.8 hPa | 0 mm | - | 192 W/m² | - |
| 1777811757 | 11.67° C | 84% | 1020.4 hPa | 0 mm | - | 100 W/m² | - |
| 1777811455 | 11.67° C | 84% | 1020.5 hPa | 0 mm | - | 84 W/m² | - |
| 1777811158 | 11.11° C | 83% | 1020.4 hPa | 0 mm | - | 69 W/m² | - |
| 1777810565 | 11.11° C | 83% | 1020.2 hPa | 0 mm | - | 47 W/m² | - |
| 1777809355 | 10.56° C | 82% | 1020 hPa | 0 mm | - | 12 W/m² | - |
| 1777808781 | 10.56° C | 82% | 1020.2 hPa | 0 mm | - | 7 W/m² | - |
| 1777808156 | 10.56° C | 82% | 1020.1 hPa | 0 mm | - | 0 W/m² | - |
| 1777807861 | 10.56° C | 81% | 1020.1 hPa | 0 mm | - | 0 W/m² | - |
| 1777806954 | 10.56° C | 81% | 1019.9 hPa | 0 mm | - | 0 W/m² | - |
| 1777804856 | 11.11° C | 80% | 1019.8 hPa | 0 mm | - | 0 W/m² | - |
| 1777804257 | 11.67° C | 80% | 1019.8 hPa | 0 mm | - | 0 W/m² | - |
| 1777803655 | 11.67° C | 80% | 1019.7 hPa | 0 mm | - | 0 W/m² | - |
| 1777803355 | 11.67° C | 80% | 1019.8 hPa | 0 mm | - | 0 W/m² | - |
| 1777801855 | 11.67° C | 80% | 1019.7 hPa | 0 mm | - | 0 W/m² | - |
| 1777801256 | 11.67° C | 80% | 1019.7 hPa | 0 mm | - | 0 W/m² | - |
* Rain latest hour (hover to see other rain measurements)
** Current wind speed in m/s (hover to see current wind gust speed)